createdAt,value
2023-05-14T00:00:22.203Z,32.50
2023-05-14T00:01:21.918Z,32.51
2023-05-14T00:02:22.012Z,32.54
2023-05-14T00:03:22.106Z,32.56
2023-05-14T00:04:22.113Z,32.63
2023-05-14T00:05:22.150Z,32.54
2023-05-14T00:06:22.200Z,32.59
2023-05-14T00:07:22.235Z,32.54
2023-05-14T00:08:22.306Z,32.59
2023-05-14T00:09:22.342Z,32.60
2023-05-14T00:10:22.728Z,32.55
2023-05-14T00:11:22.450Z,32.51
2023-05-14T00:12:22.530Z,32.53
2023-05-14T00:13:22.569Z,32.53
2023-05-14T00:14:22.645Z,32.54
2023-05-14T00:15:22.678Z,32.48
2023-05-14T00:16:22.786Z,32.48
2023-05-14T00:17:22.848Z,32.49
2023-05-14T00:18:22.850Z,32.48
2023-05-14T00:19:22.881Z,32.45
2023-05-14T00:20:23.203Z,32.48
2023-05-14T00:21:23.010Z,32.41
2023-05-14T00:22:23.047Z,32.47
2023-05-14T00:23:23.110Z,32.47
2023-05-14T00:24:23.157Z,32.42
2023-05-14T00:25:23.210Z,32.40
2023-05-14T00:26:23.309Z,32.45
2023-05-14T00:27:23.327Z,32.42
2023-05-14T00:28:23.377Z,32.46
2023-05-14T00:29:23.423Z,32.44
2023-05-14T00:30:23.653Z,32.47
2023-05-14T00:31:23.585Z,32.44
2023-05-14T00:32:23.591Z,32.46
2023-05-14T00:33:23.640Z,32.36
2023-05-14T00:34:23.672Z,32.42
2023-05-14T00:35:23.731Z,32.38
2023-05-14T00:36:23.778Z,32.41
2023-05-14T00:37:23.828Z,32.38
2023-05-14T00:38:23.890Z,32.37
2023-05-14T00:39:23.969Z,32.34
2023-05-14T00:40:24.233Z,32.35
2023-05-14T00:41:24.062Z,32.36
2023-05-14T00:42:24.108Z,32.38
2023-05-14T00:43:24.173Z,32.34
2023-05-14T00:44:24.220Z,32.35
2023-05-14T00:45:24.288Z,32.31
2023-05-14T00:46:24.347Z,32.32
2023-05-14T00:47:24.379Z,32.34
2023-05-14T00:48:24.444Z,32.31
2023-05-14T00:49:24.473Z,32.26
2023-05-14T00:50:24.729Z,32.28
2023-05-14T00:51:24.566Z,32.28
2023-05-14T00:52:24.655Z,32.27
2023-05-14T00:53:24.696Z,32.28
2023-05-14T00:54:24.762Z,32.25
2023-05-14T00:55:24.790Z,32.25
2023-05-14T00:56:24.840Z,32.25
2023-05-14T00:57:24.913Z,32.19
2023-05-14T00:58:24.970Z,32.25
2023-05-14T00:59:25.005Z,32.25
2023-05-14T01:00:25.244Z,32.25
2023-05-14T01:01:25.196Z,32.22
2023-05-14T01:02:25.199Z,32.18
2023-05-14T01:03:25.297Z,32.24
2023-05-14T01:04:25.263Z,32.18
2023-05-14T01:05:25.310Z,32.22
2023-05-14T01:06:25.377Z,32.16
2023-05-14T01:07:25.416Z,32.18
2023-05-14T01:08:25.473Z,32.21
2023-05-14T01:09:25.516Z,32.15
2023-05-14T01:10:25.852Z,32.14
2023-05-14T01:11:25.633Z,32.11
2023-05-14T01:12:25.685Z,32.08
2023-05-14T01:13:25.729Z,32.12
2023-05-14T01:14:25.801Z,32.05
2023-05-14T01:15:25.834Z,32.11
2023-05-14T01:16:25.932Z,32.04
2023-05-14T01:17:25.956Z,32.06
2023-05-14T01:18:26.080Z,31.99
2023-05-14T01:19:26.040Z,32.05
2023-05-14T01:20:26.283Z,32.01
2023-05-14T01:21:26.150Z,31.99
2023-05-14T01:22:26.212Z,31.99
2023-05-14T01:23:26.281Z,32.01
2023-05-14T01:24:26.327Z,31.95
2023-05-14T01:25:26.357Z,31.95
2023-05-14T01:26:26.411Z,31.95
2023-05-14T01:27:26.466Z,31.95
2023-05-14T01:28:26.554Z,31.92
2023-05-14T01:29:26.596Z,31.91
2023-05-14T01:30:26.786Z,31.93
2023-05-14T01:31:26.703Z,31.93
2023-05-14T01:32:26.852Z,31.93
2023-05-14T01:33:26.820Z,31.89
2023-05-14T01:34:26.841Z,31.88
2023-05-14T01:35:26.894Z,31.91
2023-05-14T01:36:26.957Z,31.87
2023-05-14T01:37:27.000Z,31.88
2023-05-14T01:38:27.045Z,31.87
2023-05-14T01:39:27.109Z,31.86
2023-05-14T01:40:27.144Z,31.85
2023-05-14T01:41:27.207Z,31.82
2023-05-14T01:42:27.287Z,31.88
2023-05-14T01:43:27.333Z,31.80
2023-05-14T01:44:27.377Z,31.87
2023-05-14T01:45:27.434Z,31.82
2023-05-14T01:46:27.531Z,31.86
2023-05-14T01:47:27.520Z,31.85
2023-05-14T01:48:27.595Z,31.85
2023-05-14T01:49:27.639Z,31.83
2023-05-14T01:50:27.671Z,31.82
2023-05-14T01:51:27.720Z,31.82
2023-05-14T01:52:27.769Z,31.79
2023-05-14T01:53:27.828Z,31.76
2023-05-14T01:54:27.907Z,31.81
2023-05-14T01:55:27.940Z,31.78
2023-05-14T01:56:27.996Z,31.82
2023-05-14T01:57:28.039Z,31.76
2023-05-14T01:58:28.098Z,31.74
2023-05-14T01:59:28.176Z,31.75
2023-05-14T02:00:28.234Z,31.76
2023-05-14T02:01:28.285Z,31.75
2023-05-14T02:02:28.396Z,31.76
2023-05-14T02:03:28.367Z,31.75
2023-05-14T02:04:28.423Z,31.73
2023-05-14T02:05:28.467Z,31.76
2023-05-14T02:06:28.519Z,31.75
2023-05-14T02:07:28.558Z,31.73
2023-05-14T02:08:28.601Z,31.76
2023-05-14T02:09:28.664Z,31.71
2023-05-14T02:10:28.745Z,31.70
2023-05-14T02:11:28.763Z,31.69
2023-05-14T02:12:28.823Z,31.73
2023-05-14T02:13:28.865Z,31.69
2023-05-14T02:14:28.941Z,31.69
2023-05-14T02:15:28.983Z,31.68
2023-05-14T02:16:29.044Z,31.72
2023-05-14T02:17:29.103Z,31.66
2023-05-14T02:18:29.128Z,31.66
2023-05-14T02:19:29.162Z,31.69
2023-05-14T02:20:29.214Z,31.65
2023-05-14T02:21:29.275Z,31.63
2023-05-14T02:22:29.326Z,31.65
2023-05-14T02:23:40.361Z,31.65
2023-05-14T02:24:30.368Z,31.61
2023-05-14T02:25:29.380Z,31.62
2023-05-14T02:26:29.360Z,31.65
2023-05-14T02:27:29.369Z,31.61
2023-05-14T02:28:29.364Z,31.62
2023-05-14T02:29:29.347Z,31.61
2023-05-14T02:30:29.346Z,31.60
2023-05-14T02:31:29.385Z,31.63
2023-05-14T02:32:29.373Z,31.60
2023-05-14T02:33:29.390Z,31.58
2023-05-14T02:34:29.418Z,31.62
2023-05-14T02:35:29.471Z,31.58
2023-05-14T02:36:29.539Z,31.63
2023-05-14T02:37:29.550Z,31.60
2023-05-14T02:38:29.611Z,31.55
2023-05-14T02:39:29.672Z,31.56
2023-05-14T02:40:29.723Z,31.55
2023-05-14T02:41:29.760Z,31.53
2023-05-14T02:42:29.840Z,31.56
2023-05-14T02:43:29.867Z,31.55
2023-05-14T02:44:30.035Z,31.52
2023-05-14T02:45:29.993Z,31.53
2023-05-14T02:46:30.095Z,31.52
2023-05-14T02:47:30.113Z,31.55
2023-05-14T02:48:30.153Z,31.53
2023-05-14T02:49:30.205Z,31.53
2023-05-14T02:50:30.285Z,31.53
2023-05-14T02:51:30.318Z,31.52
2023-05-14T02:52:30.372Z,31.54
2023-05-14T02:53:30.431Z,31.50
2023-05-14T02:54:30.485Z,31.49
2023-05-14T02:55:30.526Z,31.46
2023-05-14T02:56:30.590Z,31.49
2023-05-14T02:57:30.632Z,31.46
2023-05-14T02:58:30.684Z,31.43
2023-05-14T02:59:30.724Z,31.43
2023-05-14T03:00:30.772Z,31.43
2023-05-14T03:01:30.862Z,31.45
2023-05-14T03:02:31.000Z,31.46
2023-05-14T03:03:30.956Z,31.42
2023-05-14T03:04:30.989Z,31.43
2023-05-14T03:05:31.364Z,31.39
2023-05-14T03:06:31.104Z,31.45
2023-05-14T03:07:31.152Z,31.43
2023-05-14T03:08:31.194Z,31.40
2023-05-14T03:09:31.246Z,31.44
2023-05-14T03:10:31.312Z,31.36
2023-05-14T03:11:31.346Z,31.35
2023-05-14T03:12:31.434Z,31.39
2023-05-14T03:13:31.466Z,31.36
2023-05-14T03:14:31.541Z,31.39
2023-05-14T03:15:31.574Z,31.37
2023-05-14T03:16:31.679Z,31.36
2023-05-14T03:17:31.705Z,31.34
2023-05-14T03:18:31.765Z,31.36
2023-05-14T03:19:31.808Z,31.36
2023-05-14T03:20:31.839Z,31.39
2023-05-14T03:21:31.903Z,31.36
2023-05-14T03:22:31.959Z,31.32
2023-05-14T03:23:32.012Z,31.36
2023-05-14T03:24:32.049Z,31.34
2023-05-14T03:25:32.126Z,31.33
2023-05-14T03:26:32.150Z,31.29
2023-05-14T03:27:32.209Z,31.27
2023-05-14T03:28:32.267Z,31.37
2023-05-14T03:29:32.293Z,31.33
2023-05-14T03:30:32.436Z,31.30
2023-05-14T03:31:32.407Z,31.32
2023-05-14T03:32:32.495Z,31.36
2023-05-14T03:33:32.519Z,31.34
2023-05-14T03:34:32.579Z,31.30
2023-05-14T03:35:32.671Z,31.32
2023-05-14T03:36:32.696Z,31.27
2023-05-14T03:37:32.736Z,31.30
2023-05-14T03:38:32.782Z,31.29
2023-05-14T03:39:32.835Z,31.31
2023-05-14T03:40:32.905Z,31.29
2023-05-14T03:41:32.972Z,31.30
2023-05-14T03:42:32.991Z,31.30
2023-05-14T03:43:33.047Z,31.29
2023-05-14T03:44:33.094Z,31.27
2023-05-14T03:45:33.166Z,31.29
2023-05-14T03:46:33.238Z,31.24
2023-05-14T03:47:33.258Z,31.26
2023-05-14T03:48:33.361Z,31.27
2023-05-14T03:49:33.376Z,31.23
2023-05-14T03:50:33.428Z,31.26
2023-05-14T03:51:33.479Z,31.29
2023-05-14T03:52:33.531Z,31.29
2023-05-14T03:53:33.585Z,31.26
2023-05-14T03:54:33.624Z,31.24
2023-05-14T03:55:33.716Z,31.26
2023-05-14T03:56:33.740Z,31.26
2023-05-14T03:57:33.807Z,31.26
2023-05-14T03:58:33.868Z,31.24
2023-05-14T03:59:33.911Z,31.22
2023-05-14T04:00:33.958Z,31.26
2023-05-14T04:01:34.004Z,31.24
2023-05-14T04:02:34.182Z,31.22
2023-05-14T04:03:34.338Z,31.26
2023-05-14T04:04:34.212Z,31.20
2023-05-14T04:05:34.219Z,31.19
2023-05-14T04:06:34.275Z,31.23
2023-05-14T04:07:34.306Z,31.17
2023-05-14T04:08:34.380Z,31.16
2023-05-14T04:09:34.416Z,31.19
2023-05-14T04:10:34.477Z,31.15
2023-05-14T04:11:34.549Z,31.20
2023-05-14T04:12:34.603Z,31.12
2023-05-14T04:13:34.656Z,31.16
2023-05-14T04:15:42.146Z,31.19
2023-05-14T04:16:42.343Z,31.10
2023-05-14T04:17:42.118Z,31.13
2023-05-14T04:18:42.187Z,31.12
2023-05-14T04:19:42.100Z,31.12
2023-05-14T04:20:42.102Z,31.07
2023-05-14T04:21:42.080Z,31.06
2023-05-14T04:22:42.093Z,31.09
2023-05-14T04:23:42.089Z,31.03
2023-05-14T04:24:42.077Z,31.03
2023-05-14T04:25:42.107Z,31.03
2023-05-14T04:26:42.078Z,31.06
2023-05-14T04:27:42.050Z,31.02
2023-05-14T04:28:42.045Z,31.02
2023-05-14T04:29:42.038Z,30.99
2023-05-14T04:30:42.033Z,31.00
2023-05-14T04:31:42.090Z,30.92
2023-05-14T04:32:42.044Z,30.97
2023-05-14T04:33:42.012Z,30.96
2023-05-14T04:34:42.005Z,30.92
2023-05-14T04:35:42.002Z,30.95
2023-05-14T04:36:41.990Z,30.93
2023-05-14T04:37:41.967Z,30.92
2023-05-14T04:38:41.961Z,30.93
2023-05-14T04:39:41.956Z,30.93
2023-05-14T04:40:41.978Z,30.91
2023-05-14T04:41:41.963Z,30.92
2023-05-14T04:42:41.958Z,30.89
2023-05-14T04:43:41.929Z,30.88
2023-05-14T04:44:41.934Z,30.85
2023-05-14T04:45:41.931Z,30.89
2023-05-14T04:46:41.913Z,30.85
2023-05-14T04:47:42.031Z,30.85
2023-05-14T04:48:41.897Z,30.87
2023-05-14T04:49:41.962Z,30.88
2023-05-14T04:50:41.878Z,30.88
2023-05-14T04:51:41.888Z,30.81
2023-05-14T04:52:41.859Z,30.85
2023-05-14T04:53:41.928Z,30.79
2023-05-14T04:54:42.030Z,30.78
2023-05-14T04:55:42.019Z,30.83
2023-05-14T04:56:42.084Z,30.79
2023-05-14T04:57:42.135Z,30.80
2023-05-14T04:58:42.178Z,30.79
2023-05-14T04:59:42.227Z,30.79
2023-05-14T05:00:42.272Z,30.75
2023-05-14T05:01:42.428Z,30.75
2023-05-14T05:02:42.449Z,30.78
2023-05-14T05:03:42.470Z,30.74
2023-05-14T05:04:42.476Z,30.73
2023-05-14T05:05:42.532Z,30.72
2023-05-14T05:06:42.598Z,30.73
2023-05-14T05:07:42.644Z,30.73
2023-05-14T05:08:42.703Z,30.69
2023-05-14T05:09:42.740Z,30.70
2023-05-14T05:10:42.815Z,30.71
2023-05-14T05:11:42.854Z,30.72
2023-05-14T05:12:42.905Z,30.72
2023-05-14T05:13:42.953Z,30.73
2023-05-14T05:14:43.009Z,30.71
2023-05-14T05:15:43.089Z,30.75
2023-05-14T05:16:43.143Z,30.71
2023-05-14T05:17:43.233Z,30.73
2023-05-14T05:18:43.248Z,30.69
2023-05-14T05:19:44.419Z,30.69
2023-05-14T05:20:43.339Z,30.66
2023-05-14T05:21:43.421Z,30.68
2023-05-14T05:22:43.438Z,30.68
2023-05-14T05:23:43.491Z,30.64
2023-05-14T05:24:43.545Z,30.66
2023-05-14T05:25:43.584Z,30.64
2023-05-14T05:26:43.626Z,30.64
2023-05-14T05:27:43.710Z,30.68
2023-05-14T05:28:43.734Z,30.66
2023-05-14T05:29:43.775Z,30.65
2023-05-14T05:30:43.840Z,30.67
2023-05-14T05:31:43.901Z,30.61
2023-05-14T05:32:43.996Z,30.68
2023-05-14T05:33:43.974Z,30.62
2023-05-14T05:34:44.057Z,30.65
2023-05-14T05:35:44.092Z,30.62
2023-05-14T05:36:44.141Z,30.65
2023-05-14T05:37:44.202Z,30.68
2023-05-14T05:38:44.254Z,30.65
2023-05-14T05:39:44.282Z,30.59
2023-05-14T05:40:44.336Z,30.62
2023-05-14T05:41:44.390Z,30.61
2023-05-14T05:42:44.433Z,30.58
2023-05-14T05:43:44.476Z,30.56
2023-05-14T05:44:44.513Z,30.56
2023-05-14T05:45:44.578Z,30.55
2023-05-14T05:46:44.658Z,30.61
2023-05-14T05:47:44.707Z,30.59
2023-05-14T05:48:44.703Z,30.54
2023-05-14T05:49:44.776Z,30.54
2023-05-14T05:50:44.853Z,30.54
2023-05-14T05:51:44.871Z,30.58
2023-05-14T05:52:44.905Z,30.55
2023-05-14T05:53:44.982Z,30.52
2023-05-14T05:54:45.016Z,30.55
2023-05-14T05:55:45.061Z,30.55
2023-05-14T05:56:45.123Z,30.52
2023-05-14T05:57:45.185Z,30.53
2023-05-14T05:58:45.236Z,30.51
2023-05-14T05:59:45.293Z,30.49
2023-05-14T06:00:45.331Z,30.52
2023-05-14T06:01:45.410Z,30.51
2023-05-14T06:02:45.541Z,30.47
2023-05-14T06:03:47.668Z,30.49
2023-05-14T06:04:45.525Z,30.54
2023-05-14T06:05:45.552Z,30.48
2023-05-14T06:06:45.459Z,30.51
2023-05-14T06:07:45.459Z,30.50
2023-05-14T06:08:45.473Z,30.48
2023-05-14T06:09:45.475Z,30.47
2023-05-14T06:10:46.910Z,30.44
2023-05-14T06:11:45.443Z,30.45
2023-05-14T06:12:45.435Z,30.42
2023-05-14T06:13:45.433Z,30.41
2023-05-14T06:14:45.424Z,30.40
2023-05-14T06:15:45.400Z,30.43
2023-05-14T06:16:45.417Z,30.41
2023-05-14T06:17:45.439Z,30.41
2023-05-14T06:18:45.515Z,30.35
2023-05-14T06:19:45.534Z,30.40
2023-05-14T06:20:45.581Z,30.33
2023-05-14T06:21:45.633Z,30.37
2023-05-14T06:22:45.693Z,30.34
2023-05-14T06:23:45.710Z,30.34
2023-05-14T06:24:45.805Z,30.36
2023-05-14T06:25:45.816Z,30.40
2023-05-14T06:26:45.838Z,30.33
2023-05-14T06:27:45.890Z,30.32
2023-05-14T06:28:45.936Z,30.30
2023-05-14T06:29:45.996Z,30.31
2023-05-14T06:30:46.047Z,30.30
2023-05-14T06:31:46.093Z,30.29
2023-05-14T06:32:46.168Z,30.33
2023-05-14T06:33:46.182Z,30.33
2023-05-14T06:34:46.227Z,30.26
2023-05-14T06:35:46.284Z,30.24
2023-05-14T06:36:46.308Z,30.29
2023-05-14T06:37:46.370Z,30.22
2023-05-14T06:38:46.404Z,30.29
2023-05-14T06:39:46.448Z,30.25
2023-05-14T06:40:46.503Z,30.26
2023-05-14T06:41:46.544Z,30.25
2023-05-14T06:42:46.567Z,30.22
2023-05-14T06:43:46.623Z,30.23
2023-05-14T06:44:46.671Z,30.21
2023-05-14T06:45:46.783Z,30.20
2023-05-14T06:46:46.734Z,30.25
2023-05-14T06:47:46.835Z,30.19
2023-05-14T06:48:46.825Z,30.22
2023-05-14T06:49:46.831Z,30.19
2023-05-14T06:50:46.907Z,30.15
2023-05-14T06:51:46.924Z,30.17
2023-05-14T06:52:46.976Z,30.21
2023-05-14T06:53:46.989Z,30.21
2023-05-14T06:54:47.017Z,30.14
2023-05-14T06:55:47.071Z,30.15
2023-05-14T06:56:47.126Z,30.18
2023-05-14T06:57:47.154Z,30.14
2023-05-14T06:58:47.159Z,30.15
2023-05-14T06:59:47.208Z,30.17
2023-05-14T07:00:47.250Z,30.17
2023-05-14T07:01:47.344Z,30.11
2023-05-14T07:02:47.342Z,30.14
2023-05-14T07:03:47.377Z,30.08
2023-05-14T07:04:47.364Z,30.15
2023-05-14T07:05:47.386Z,30.10
2023-05-14T07:06:47.453Z,30.11
2023-05-14T07:07:47.469Z,30.12
2023-05-14T07:08:47.491Z,30.10
2023-05-14T07:09:47.508Z,30.11
2023-05-14T07:10:47.535Z,30.10
2023-05-14T07:11:47.575Z,30.04
2023-05-14T07:12:47.609Z,30.09
2023-05-14T07:13:47.623Z,30.08
2023-05-14T07:14:47.664Z,30.09
2023-05-14T07:15:47.717Z,30.05
2023-05-14T07:16:47.786Z,30.08
2023-05-14T07:17:47.751Z,30.02
2023-05-14T07:18:47.786Z,30.04
2023-05-14T07:19:47.808Z,30.05
2023-05-14T07:20:47.819Z,30.00
2023-05-14T07:21:47.858Z,30.00
2023-05-14T07:22:47.857Z,29.98
2023-05-14T07:23:47.888Z,29.95
2023-05-14T07:24:47.904Z,29.97
2023-05-14T07:25:47.937Z,29.97
2023-05-14T07:26:47.998Z,30.03
2023-05-14T07:27:47.990Z,29.96
2023-05-14T07:28:48.012Z,29.99
2023-05-14T07:29:48.046Z,29.94
2023-05-14T07:30:48.030Z,30.00
2023-05-14T07:31:48.176Z,29.97
2023-05-14T07:32:48.146Z,29.98
2023-05-14T07:33:48.083Z,29.97
2023-05-14T07:34:48.131Z,29.98
2023-05-14T07:35:48.134Z,29.99
2023-05-14T07:36:48.142Z,29.99
2023-05-14T07:37:48.151Z,29.95
2023-05-14T07:38:48.152Z,29.93
2023-05-14T07:39:48.170Z,29.98
2023-05-14T07:40:48.164Z,29.88
2023-05-14T07:41:48.174Z,29.89
2023-05-14T07:42:48.210Z,29.88
2023-05-14T07:43:48.210Z,29.82
2023-05-14T07:44:48.214Z,29.84
2023-05-14T07:45:48.244Z,29.82
2023-05-14T07:46:48.239Z,29.82
2023-05-14T07:47:48.396Z,29.84
2023-05-14T07:48:48.253Z,29.81
2023-05-14T07:49:48.303Z,29.82
2023-05-14T07:50:48.301Z,29.84
2023-05-14T07:51:48.306Z,29.83
2023-05-14T07:52:48.322Z,29.80
2023-05-14T07:53:48.334Z,29.72
2023-05-14T07:54:50.594Z,29.69
2023-05-14T07:55:48.334Z,29.72
2023-05-14T07:56:48.370Z,29.71
2023-05-14T07:57:48.336Z,29.75
2023-05-14T07:58:48.332Z,29.75
2023-05-14T07:59:48.382Z,29.69
2023-05-14T08:00:48.421Z,29.66
2023-05-14T08:01:48.433Z,29.69
2023-05-14T08:02:48.526Z,29.66
2023-05-14T08:03:48.499Z,29.69
2023-05-14T08:04:48.478Z,29.68
2023-05-14T08:05:48.581Z,29.64
2023-05-14T08:06:48.641Z,29.67
2023-05-14T08:07:48.660Z,29.68
2023-05-14T08:08:48.614Z,29.71
2023-05-14T08:09:48.618Z,29.65
2023-05-14T08:10:48.705Z,29.66
2023-05-14T08:11:48.672Z,29.63
2023-05-14T08:12:48.655Z,29.56
2023-05-14T08:13:48.650Z,29.60
2023-05-14T08:14:48.672Z,29.59
2023-05-14T08:15:48.670Z,29.59
2023-05-14T08:16:48.858Z,29.56
2023-05-14T08:17:48.919Z,29.58
2023-05-14T08:18:48.962Z,29.57
2023-05-14T08:19:48.922Z,29.47
2023-05-14T08:20:48.973Z,29.43
2023-05-14T08:21:49.025Z,29.40
2023-05-14T08:22:49.039Z,29.43
2023-05-14T08:23:49.070Z,29.34
2023-05-14T08:24:49.176Z,29.32
2023-05-14T08:25:49.224Z,29.28
2023-05-14T08:26:49.293Z,29.26
2023-05-14T08:27:49.271Z,29.26
2023-05-14T08:28:49.324Z,29.21
2023-05-14T08:29:49.353Z,29.17
2023-05-14T08:30:49.442Z,29.26
2023-05-14T08:31:49.456Z,29.25
2023-05-14T08:32:49.470Z,29.29
2023-05-14T08:33:49.529Z,29.21
2023-05-14T08:34:49.619Z,29.22
2023-05-14T08:35:49.680Z,29.17
2023-05-14T08:36:49.776Z,29.21
2023-05-14T08:37:49.802Z,29.18
2023-05-14T08:38:49.882Z,29.18
2023-05-14T08:39:49.961Z,29.12
2023-05-14T08:40:50.052Z,29.15
2023-05-14T08:41:50.117Z,29.15
2023-05-14T08:42:50.154Z,29.12
2023-05-14T08:43:50.207Z,29.14
2023-05-14T08:44:50.307Z,29.14
2023-05-14T08:45:50.329Z,29.17
2023-05-14T08:46:50.388Z,29.13
2023-05-14T08:47:50.579Z,29.16
2023-05-14T08:48:50.573Z,29.13
2023-05-14T08:49:50.544Z,29.16
2023-05-14T08:50:50.611Z,29.17
2023-05-14T08:51:50.681Z,29.16
2023-05-14T08:52:50.715Z,29.16
2023-05-14T08:53:50.777Z,29.08
2023-05-14T08:54:50.827Z,29.08
2023-05-14T08:55:50.914Z,29.02
2023-05-14T08:56:51.868Z,28.99
2023-05-14T08:57:50.967Z,28.95
2023-05-14T08:58:51.033Z,28.88
2023-05-14T08:59:51.069Z,28.90
2023-05-14T09:00:51.138Z,28.86
2023-05-14T09:01:51.179Z,28.84
2023-05-14T09:02:51.257Z,28.77
2023-05-14T09:03:51.272Z,28.76
2023-05-14T09:04:51.274Z,28.69
2023-05-14T09:05:51.298Z,28.68
2023-05-14T09:06:51.313Z,28.65
2023-05-14T09:07:51.338Z,28.54
2023-05-14T09:08:51.373Z,28.53
2023-05-14T09:09:51.420Z,28.49
2023-05-14T09:10:51.503Z,28.47
2023-05-14T09:11:51.463Z,28.42
2023-05-14T09:12:51.497Z,28.44
2023-05-14T09:13:51.541Z,28.40
2023-05-14T09:14:51.547Z,28.39
2023-05-14T09:15:51.588Z,28.30
2023-05-14T09:16:51.684Z,28.31
2023-05-14T09:17:51.661Z,28.31
2023-05-14T09:18:51.640Z,28.28
2023-05-14T09:19:51.622Z,28.27
2023-05-14T09:20:51.616Z,28.36
2023-05-14T09:21:51.626Z,28.39
2023-05-14T09:22:51.642Z,28.34
2023-05-14T09:23:51.653Z,28.31
2023-05-14T09:24:51.691Z,28.31
2023-05-14T09:25:51.672Z,28.27
2023-05-14T09:26:51.674Z,28.32
2023-05-14T09:27:51.699Z,28.25
2023-05-14T09:28:51.689Z,28.23
2023-05-14T09:29:51.687Z,28.26
2023-05-14T09:30:51.690Z,28.26
2023-05-14T09:31:51.893Z,28.25
2023-05-14T09:32:51.691Z,28.19
2023-05-14T09:33:51.669Z,28.25
2023-05-14T09:34:51.688Z,28.30
2023-05-14T09:35:51.672Z,28.43
2023-05-14T09:36:51.690Z,28.48
2023-05-14T09:37:51.708Z,28.54
2023-05-14T09:38:51.711Z,28.59
2023-05-14T09:39:51.720Z,28.65
2023-05-14T09:40:51.780Z,28.66
2023-05-14T09:41:51.771Z,28.68
2023-05-14T09:42:51.753Z,28.67
2023-05-14T09:43:51.762Z,28.68
2023-05-14T09:44:51.799Z,28.74
2023-05-14T09:45:51.819Z,28.75
2023-05-14T09:46:51.848Z,28.75
2023-05-14T09:47:51.975Z,28.68
2023-05-14T09:48:51.868Z,28.77
2023-05-14T09:49:51.880Z,28.69
2023-05-14T09:50:51.886Z,28.70
2023-05-14T09:51:51.889Z,28.74
2023-05-14T09:52:51.905Z,28.69
2023-05-14T09:53:51.906Z,28.69
2023-05-14T09:54:51.937Z,28.75
2023-05-14T09:55:51.924Z,28.74
2023-05-14T09:56:52.960Z,28.74
2023-05-14T09:57:52.049Z,28.76
2023-05-14T09:58:52.054Z,28.75
2023-05-14T09:59:52.069Z,28.74
2023-05-14T10:00:52.117Z,28.76
2023-05-14T10:01:52.105Z,28.72
2023-05-14T10:02:52.184Z,28.75
2023-05-14T10:03:52.179Z,28.74
2023-05-14T10:04:52.220Z,28.74
2023-05-14T10:05:52.168Z,28.75
2023-05-14T10:06:52.186Z,28.75
2023-05-14T10:07:52.161Z,28.77
2023-05-14T10:08:52.182Z,28.71
2023-05-14T10:09:52.184Z,28.63
2023-05-14T10:10:52.187Z,28.59
2023-05-14T10:11:52.193Z,28.55
2023-05-14T10:12:52.200Z,28.46
2023-05-14T10:13:52.199Z,28.45
2023-05-14T10:14:52.190Z,28.44
2023-05-14T10:15:52.203Z,28.44
2023-05-14T10:16:52.208Z,28.41
2023-05-14T10:17:52.244Z,28.40
2023-05-14T10:18:52.247Z,28.38
2023-05-14T10:19:52.193Z,28.37
2023-05-14T10:20:52.204Z,28.44
2023-05-14T10:21:52.215Z,28.42
2023-05-14T10:22:52.229Z,28.44
2023-05-14T10:23:52.196Z,28.47
2023-05-14T10:24:52.207Z,28.41
2023-05-14T10:25:52.214Z,28.44
2023-05-14T10:26:52.218Z,28.48
2023-05-14T10:27:52.223Z,28.50
2023-05-14T10:28:52.209Z,28.49
2023-05-14T10:29:52.228Z,28.49
2023-05-14T10:30:52.273Z,28.52
2023-05-14T10:31:52.239Z,28.52
2023-05-14T10:32:52.288Z,28.53
2023-05-14T10:33:52.240Z,28.55
2023-05-14T10:34:52.249Z,28.55
2023-05-14T10:35:52.236Z,28.53
2023-05-14T10:36:52.231Z,28.58
2023-05-14T10:37:52.246Z,28.55
2023-05-14T10:38:52.248Z,28.55
2023-05-14T10:39:52.257Z,28.59
2023-05-14T10:40:54.174Z,28.56
2023-05-14T10:41:52.279Z,28.53
2023-05-14T10:42:52.256Z,28.53
2023-05-14T10:43:52.235Z,28.57
2023-05-14T10:44:52.277Z,28.55
2023-05-14T10:45:52.249Z,28.60
2023-05-14T10:46:52.312Z,28.56
2023-05-14T10:47:52.308Z,28.57
2023-05-14T10:48:52.263Z,28.62
2023-05-14T10:49:52.263Z,28.56
2023-05-14T10:50:52.310Z,28.58
2023-05-14T10:51:52.312Z,28.54
2023-05-14T10:52:52.274Z,28.60
2023-05-14T10:53:52.276Z,28.58
2023-05-14T10:54:52.276Z,28.58
2023-05-14T10:55:52.285Z,28.60
2023-05-14T10:56:52.282Z,28.57
2023-05-14T10:57:52.307Z,28.60
2023-05-14T10:58:52.295Z,28.61
2023-05-14T10:59:52.296Z,28.56
2023-05-14T11:00:52.320Z,28.53
2023-05-14T11:01:52.358Z,28.48
2023-05-14T11:02:52.347Z,28.49
2023-05-14T11:03:52.391Z,28.47
2023-05-14T11:04:52.344Z,28.48
2023-05-14T11:05:52.328Z,28.47
2023-05-14T11:06:52.355Z,28.40
2023-05-14T11:07:52.371Z,28.45
2023-05-14T11:08:52.378Z,28.43
2023-05-14T11:09:52.385Z,28.47
2023-05-14T11:10:52.382Z,28.50
2023-05-14T11:11:52.401Z,28.50
2023-05-14T11:12:52.393Z,28.52
2023-05-14T11:13:52.422Z,28.44
2023-05-14T11:14:52.430Z,28.48
2023-05-14T11:15:52.438Z,28.55
2023-05-14T11:16:52.508Z,28.44
2023-05-14T11:17:52.493Z,28.44
2023-05-14T11:18:52.492Z,28.50
2023-05-14T11:19:52.471Z,28.50
2023-05-14T11:20:52.453Z,28.42
2023-05-14T11:21:52.474Z,28.44
2023-05-14T11:22:52.519Z,28.44
2023-05-14T11:23:52.501Z,28.47
2023-05-14T11:24:52.545Z,28.43
2023-05-14T11:25:52.577Z,28.47
2023-05-14T11:26:52.538Z,28.51
2023-05-14T11:27:52.559Z,28.47
2023-05-14T11:28:52.573Z,28.45
2023-05-14T11:29:52.584Z,28.48
2023-05-14T11:30:52.571Z,28.52
2023-05-14T11:31:52.631Z,28.53
2023-05-14T11:32:52.661Z,28.53
2023-05-14T11:33:52.633Z,28.52
2023-05-14T11:34:52.645Z,28.55
2023-05-14T11:35:52.637Z,28.56
2023-05-14T11:36:52.674Z,28.51
2023-05-14T11:37:52.717Z,28.54
2023-05-14T11:38:52.862Z,28.60
2023-05-14T11:39:52.717Z,28.60
2023-05-14T11:40:52.732Z,28.58
2023-05-14T11:41:52.782Z,28.63
2023-05-14T11:42:52.766Z,28.60
2023-05-14T11:43:52.785Z,28.54
2023-05-14T11:44:52.819Z,28.61
2023-05-14T11:45:52.891Z,28.53
2023-05-14T11:46:52.861Z,28.50
2023-05-14T11:47:52.885Z,28.63
2023-05-14T11:48:52.910Z,28.50
2023-05-14T11:49:52.939Z,28.58
2023-05-14T11:50:53.049Z,28.49
2023-05-14T11:51:52.973Z,28.59
2023-05-14T11:52:53.049Z,28.49
2023-05-14T11:53:53.044Z,28.52
2023-05-14T11:54:53.051Z,28.36
2023-05-14T11:55:53.093Z,28.43
2023-05-14T11:56:53.115Z,28.44
2023-05-14T11:57:53.163Z,28.38
2023-05-14T11:58:53.181Z,28.47
2023-05-14T11:59:53.209Z,28.45
2023-05-14T12:00:53.234Z,28.31
2023-05-14T12:01:53.254Z,28.42
2023-05-14T12:02:53.342Z,28.52
2023-05-14T12:03:53.429Z,28.51
2023-05-14T12:04:53.420Z,28.56
2023-05-14T12:05:53.387Z,28.58
2023-05-14T12:06:53.411Z,28.66
2023-05-14T12:07:53.476Z,28.68
2023-05-14T12:08:53.481Z,28.69
2023-05-14T12:09:53.500Z,28.76
2023-05-14T12:10:53.544Z,28.73
2023-05-14T12:11:53.593Z,28.80
2023-05-14T12:12:53.615Z,28.80
2023-05-14T12:13:53.632Z,28.85
2023-05-14T12:14:53.676Z,28.93
2023-05-14T12:15:53.759Z,28.96
2023-05-14T12:16:53.725Z,28.89
2023-05-14T12:17:53.817Z,28.95
2023-05-14T12:18:53.819Z,29.00
2023-05-14T12:19:53.863Z,28.99
2023-05-14T12:20:53.887Z,29.05
2023-05-14T12:21:53.894Z,29.09
2023-05-14T12:22:53.970Z,28.99
2023-05-14T12:23:53.997Z,29.06
2023-05-14T12:24:54.057Z,29.16
2023-05-14T12:25:54.036Z,29.19
2023-05-14T12:26:54.086Z,29.15
2023-05-14T12:27:54.118Z,29.19
2023-05-14T12:28:54.128Z,29.22
2023-05-14T12:29:54.208Z,29.23
2023-05-14T12:30:54.225Z,29.19
2023-05-14T12:31:54.321Z,29.20
2023-05-14T12:32:54.382Z,29.19
2023-05-14T12:33:54.318Z,29.25
2023-05-14T12:34:54.352Z,29.12
2023-05-14T12:35:54.379Z,29.19
2023-05-14T12:36:54.425Z,29.12
2023-05-14T12:37:54.465Z,29.05
2023-05-14T12:38:54.471Z,29.08
2023-05-14T12:39:54.512Z,28.99
2023-05-14T12:40:54.552Z,29.04
2023-05-14T12:41:54.614Z,29.02
2023-05-14T12:42:56.708Z,29.06
2023-05-14T12:43:54.648Z,29.06
2023-05-14T12:44:54.693Z,29.12
2023-05-14T12:45:54.715Z,29.05
2023-05-14T12:46:54.820Z,29.10
2023-05-14T12:47:54.838Z,29.14
2023-05-14T12:48:54.831Z,29.18
2023-05-14T12:49:54.878Z,29.25
2023-05-14T12:50:54.939Z,29.22
2023-05-14T12:52:04.535Z,29.26
2023-05-14T12:52:55.940Z,29.28
2023-05-14T12:53:54.950Z,29.31